sensor_id;sensor_type;location;lat;lon;timestamp;temperature;humidity
71142;DHT22;58808;59.366;17.970;2022-12-29T00:02:12;1.60;99.90
71142;DHT22;58808;59.366;17.970;2022-12-29T00:04:38;1.60;99.90
71142;DHT22;58808;59.366;17.970;2022-12-29T00:07:04;1.60;99.90
71142;DHT22;58808;59.366;17.970;2022-12-29T00:09:31;1.60;99.90
71142;DHT22;58808;59.366;17.970;2022-12-29T00:11:57;1.60;99.90
71142;DHT22;58808;59.366;17.970;2022-12-29T00:14:23;1.60;99.90
71142;DHT22;58808;59.366;17.970;2022-12-29T00:17:07;1.60;99.90
71142;DHT22;58808;59.366;17.970;2022-12-29T00:19:33;1.60;99.90
71142;DHT22;58808;59.366;17.970;2022-12-29T00:22:17;1.60;99.90
71142;DHT22;58808;59.366;17.970;2022-12-29T00:25:02;1.60;99.90
71142;DHT22;58808;59.366;17.970;2022-12-29T00:27:46;1.60;99.90
71142;DHT22;58808;59.366;17.970;2022-12-29T00:30:30;1.60;99.90
71142;DHT22;58808;59.366;17.970;2022-12-29T00:33:15;1.70;99.90
71142;DHT22;58808;59.366;17.970;2022-12-29T00:38:35;1.60;99.90
71142;DHT22;58808;59.366;17.970;2022-12-29T00:41:20;1.60;99.90
71142;DHT22;58808;59.366;17.970;2022-12-29T00:44:06;1.60;99.90
71142;DHT22;58808;59.366;17.970;2022-12-29T00:46:36;1.60;99.90
71142;DHT22;58808;59.366;17.970;2022-12-29T00:49:03;1.60;99.90
71142;DHT22;58808;59.366;17.970;2022-12-29T00:51:47;1.60;99.90
71142;DHT22;58808;59.366;17.970;2022-12-29T00:54:14;1.60;99.90
71142;DHT22;58808;59.366;17.970;2022-12-29T00:56:39;1.70;99.90
71142;DHT22;58808;59.366;17.970;2022-12-29T00:59:07;1.70;99.90
71142;DHT22;58808;59.366;17.970;2022-12-29T01:01:33;1.70;99.90
71142;DHT22;58808;59.366;17.970;2022-12-29T01:03:59;1.70;99.90
71142;DHT22;58808;59.366;17.970;2022-12-29T01:06:25;1.70;99.90
71142;DHT22;58808;59.366;17.970;2022-12-29T01:08:51;1.70;99.90
71142;DHT22;58808;59.366;17.970;2022-12-29T01:11:38;1.70;99.90
71142;DHT22;58808;59.366;17.970;2022-12-29T01:14:04;1.70;99.90
71142;DHT22;58808;59.366;17.970;2022-12-29T01:16:29;1.80;99.90
71142;DHT22;58808;59.366;17.970;2022-12-29T01:18:55;1.90;99.90
71142;DHT22;58808;59.366;17.970;2022-12-29T01:21:21;1.90;99.90
71142;DHT22;58808;59.366;17.970;2022-12-29T01:23:47;2.00;99.90
71142;DHT22;58808;59.366;17.970;2022-12-29T01:26:14;2.00;99.90
71142;DHT22;58808;59.366;17.970;2022-12-29T01:28:41;2.00;99.90
71142;DHT22;58808;59.366;17.970;2022-12-29T01:31:08;2.00;99.90
71142;DHT22;58808;59.366;17.970;2022-12-29T01:33:34;2.00;99.90
71142;DHT22;58808;59.366;17.970;2022-12-29T01:36:07;2.00;99.90
71142;DHT22;58808;59.366;17.970;2022-12-29T01:38:34;2.00;99.90
71142;DHT22;58808;59.366;17.970;2022-12-29T01:41:00;2.00;99.90
71142;DHT22;58808;59.366;17.970;2022-12-29T01:49:19;2.00;99.90
71142;DHT22;58808;59.366;17.970;2022-12-29T01:51:48;1.90;99.90
71142;DHT22;58808;59.366;17.970;2022-12-29T01:54:41;2.00;99.90
71142;DHT22;58808;59.366;17.970;2022-12-29T01:57:15;2.00;99.90
71142;DHT22;58808;59.366;17.970;2022-12-29T01:59:47;2.00;99.90
71142;DHT22;58808;59.366;17.970;2022-12-29T02:02:15;2.10;99.90
71142;DHT22;58808;59.366;17.970;2022-12-29T02:04:43;2.10;99.90
71142;DHT22;58808;59.366;17.970;2022-12-29T02:07:23;2.20;99.90
71142;DHT22;58808;59.366;17.970;2022-12-29T02:09:51;2.30;99.90
71142;DHT22;58808;59.366;17.970;2022-12-29T02:12:20;2.30;99.90
71142;DHT22;58808;59.366;17.970;2022-12-29T02:14:47;2.30;99.90
71142;DHT22;58808;59.366;17.970;2022-12-29T02:18:22;2.30;99.90
71142;DHT22;58808;59.366;17.970;2022-12-29T02:21:05;2.40;99.90
71142;DHT22;58808;59.366;17.970;2022-12-29T02:27:08;2.40;99.90
71142;DHT22;58808;59.366;17.970;2022-12-29T02:29:21;2.40;99.90
71142;DHT22;58808;59.366;17.970;2022-12-29T02:32:01;2.40;99.90
71142;DHT22;58808;59.366;17.970;2022-12-29T02:40:25;2.40;99.90
71142;DHT22;58808;59.366;17.970;2022-12-29T02:43:03;2.40;99.90
71142;DHT22;58808;59.366;17.970;2022-12-29T02:45:40;2.40;99.90
71142;DHT22;58808;59.366;17.970;2022-12-29T02:48:25;2.40;99.90
71142;DHT22;58808;59.366;17.970;2022-12-29T02:50:57;2.40;99.90
71142;DHT22;58808;59.366;17.970;2022-12-29T02:53:25;2.30;99.90
71142;DHT22;58808;59.366;17.970;2022-12-29T02:56:10;2.30;99.90
71142;DHT22;58808;59.366;17.970;2022-12-29T02:58:35;2.30;99.90
71142;DHT22;58808;59.366;17.970;2022-12-29T03:15:08;2.50;99.90
71142;DHT22;58808;59.366;17.970;2022-12-29T03:18:05;2.50;99.90
71142;DHT22;58808;59.366;17.970;2022-12-29T03:23:13;2.50;99.90
71142;DHT22;58808;59.366;17.970;2022-12-29T03:25:46;2.50;99.90
71142;DHT22;58808;59.366;17.970;2022-12-29T03:28:28;2.60;99.90
71142;DHT22;58808;59.366;17.970;2022-12-29T03:30:57;2.60;99.90
71142;DHT22;58808;59.366;17.970;2022-12-29T03:33:26;2.60;99.90
71142;DHT22;58808;59.366;17.970;2022-12-29T03:35:59;2.60;99.90
71142;DHT22;58808;59.366;17.970;2022-12-29T03:38:40;2.60;99.90
71142;DHT22;58808;59.366;17.970;2022-12-29T03:41:11;2.60;99.90
71142;DHT22;58808;59.366;17.970;2022-12-29T03:43:38;2.70;99.90
71142;DHT22;58808;59.366;17.970;2022-12-29T03:46:04;2.70;99.90
71142;DHT22;58808;59.366;17.970;2022-12-29T03:48:29;2.70;99.90
71142;DHT22;58808;59.366;17.970;2022-12-29T03:50:55;2.70;99.90
71142;DHT22;58808;59.366;17.970;2022-12-29T03:53:21;2.70;99.90
71142;DHT22;58808;59.366;17.970;2022-12-29T03:55:46;2.70;99.90
71142;DHT22;58808;59.366;17.970;2022-12-29T03:58:12;2.70;99.90
71142;DHT22;58808;59.366;17.970;2022-12-29T04:00:38;2.70;99.90
71142;DHT22;58808;59.366;17.970;2022-12-29T04:03:03;2.80;99.90
71142;DHT22;58808;59.366;17.970;2022-12-29T04:05:29;2.80;99.90
71142;DHT22;58808;59.366;17.970;2022-12-29T04:07:56;2.80;99.90
71142;DHT22;58808;59.366;17.970;2022-12-29T04:10:22;2.80;99.90
71142;DHT22;58808;59.366;17.970;2022-12-29T04:12:47;2.80;99.90
71142;DHT22;58808;59.366;17.970;2022-12-29T04:15:13;2.80;99.90
71142;DHT22;58808;59.366;17.970;2022-12-29T04:17:39;2.90;99.90
71142;DHT22;58808;59.366;17.970;2022-12-29T04:20:05;2.90;99.90
71142;DHT22;58808;59.366;17.970;2022-12-29T04:22:56;2.90;99.90
71142;DHT22;58808;59.366;17.970;2022-12-29T04:25:22;2.90;99.90
71142;DHT22;58808;59.366;17.970;2022-12-29T04:27:48;3.00;99.90
71142;DHT22;58808;59.366;17.970;2022-12-29T04:30:13;3.00;99.90
71142;DHT22;58808;59.366;17.970;2022-12-29T04:32:39;3.00;99.90
71142;DHT22;58808;59.366;17.970;2022-12-29T04:35:05;3.00;99.90
71142;DHT22;58808;59.366;17.970;2022-12-29T04:37:31;3.00;99.90
71142;DHT22;58808;59.366;17.970;2022-12-29T04:39:56;3.00;99.90
71142;DHT22;58808;59.366;17.970;2022-12-29T04:42:22;3.00;99.90
71142;DHT22;58808;59.366;17.970;2022-12-29T04:44:48;3.00;99.90
71142;DHT22;58808;59.366;17.970;2022-12-29T04:47:13;3.00;99.90
71142;DHT22;58808;59.366;17.970;2022-12-29T04:49:39;3.10;99.90
71142;DHT22;58808;59.366;17.970;2022-12-29T04:52:04;3.10;99.90
71142;DHT22;58808;59.366;17.970;2022-12-29T04:54:30;3.10;99.90
71142;DHT22;58808;59.366;17.970;2022-12-29T04:56:56;3.20;99.90
71142;DHT22;58808;59.366;17.970;2022-12-29T04:59:22;3.20;99.90
71142;DHT22;58808;59.366;17.970;2022-12-29T05:01:47;3.20;99.90
71142;DHT22;58808;59.366;17.970;2022-12-29T05:04:13;3.20;99.90
71142;DHT22;58808;59.366;17.970;2022-12-29T05:06:39;3.20;99.90
71142;DHT22;58808;59.366;17.970;2022-12-29T05:09:04;3.20;99.90
71142;DHT22;58808;59.366;17.970;2022-12-29T05:11:30;3.20;99.90
71142;DHT22;58808;59.366;17.970;2022-12-29T05:13:56;3.20;99.90
71142;DHT22;58808;59.366;17.970;2022-12-29T05:16:21;3.20;99.90
71142;DHT22;58808;59.366;17.970;2022-12-29T05:18:47;3.20;99.90
71142;DHT22;58808;59.366;17.970;2022-12-29T05:21:13;3.20;99.90
71142;DHT22;58808;59.366;17.970;2022-12-29T05:23:38;3.20;99.90
71142;DHT22;58808;59.366;17.970;2022-12-29T05:26:04;3.30;99.90
71142;DHT22;58808;59.366;17.970;2022-12-29T05:28:30;3.30;99.90
71142;DHT22;58808;59.366;17.970;2022-12-29T05:30:55;3.30;99.90
71142;DHT22;58808;59.366;17.970;2022-12-29T05:33:21;3.30;99.90
71142;DHT22;58808;59.366;17.970;2022-12-29T05:35:47;3.30;99.90
71142;DHT22;58808;59.366;17.970;2022-12-29T05:38:12;3.30;99.90
71142;DHT22;58808;59.366;17.970;2022-12-29T05:40:38;3.30;99.90
71142;DHT22;58808;59.366;17.970;2022-12-29T05:43:04;3.40;99.90
71142;DHT22;58808;59.366;17.970;2022-12-29T05:45:29;3.40;99.90
71142;DHT22;58808;59.366;17.970;2022-12-29T05:47:55;3.40;99.90
71142;DHT22;58808;59.366;17.970;2022-12-29T05:50:21;3.40;99.90
71142;DHT22;58808;59.366;17.970;2022-12-29T05:52:46;3.40;99.90
71142;DHT22;58808;59.366;17.970;2022-12-29T05:55:12;3.40;99.90
71142;DHT22;58808;59.366;17.970;2022-12-29T05:57:38;3.40;99.90
71142;DHT22;58808;59.366;17.970;2022-12-29T06:00:05;3.40;99.90
71142;DHT22;58808;59.366;17.970;2022-12-29T06:02:31;3.40;99.90
71142;DHT22;58808;59.366;17.970;2022-12-29T06:04:57;3.40;99.90
71142;DHT22;58808;59.366;17.970;2022-12-29T06:07:23;3.40;99.90
71142;DHT22;58808;59.366;17.970;2022-12-29T06:09:48;3.50;99.90
71142;DHT22;58808;59.366;17.970;2022-12-29T06:12:14;3.50;99.90
71142;DHT22;58808;59.366;17.970;2022-12-29T06:14:40;3.50;99.90
71142;DHT22;58808;59.366;17.970;2022-12-29T06:17:05;3.50;99.90
71142;DHT22;58808;59.366;17.970;2022-12-29T06:19:31;3.50;99.90
71142;DHT22;58808;59.366;17.970;2022-12-29T06:21:57;3.50;99.90
71142;DHT22;58808;59.366;17.970;2022-12-29T06:24:22;3.50;99.90
71142;DHT22;58808;59.366;17.970;2022-12-29T06:26:48;3.50;99.90
71142;DHT22;58808;59.366;17.970;2022-12-29T06:29:14;3.50;99.90
71142;DHT22;58808;59.366;17.970;2022-12-29T06:31:44;3.50;99.90
71142;DHT22;58808;59.366;17.970;2022-12-29T06:34:11;3.60;99.90
71142;DHT22;58808;59.366;17.970;2022-12-29T06:36:38;3.60;99.90
71142;DHT22;58808;59.366;17.970;2022-12-29T06:39:03;3.60;99.90
71142;DHT22;58808;59.366;17.970;2022-12-29T06:41:29;3.60;99.90
71142;DHT22;58808;59.366;17.970;2022-12-29T06:43:55;3.60;99.90
71142;DHT22;58808;59.366;17.970;2022-12-29T06:46:20;3.70;99.90
71142;DHT22;58808;59.366;17.970;2022-12-29T06:48:46;3.70;99.90
71142;DHT22;58808;59.366;17.970;2022-12-29T06:51:12;3.70;99.90
71142;DHT22;58808;59.366;17.970;2022-12-29T06:53:38;3.70;99.90
71142;DHT22;58808;59.366;17.970;2022-12-29T06:56:03;3.70;99.90
71142;DHT22;58808;59.366;17.970;2022-12-29T06:58:30;3.80;99.90
71142;DHT22;58808;59.366;17.970;2022-12-29T07:00:56;3.80;99.90
71142;DHT22;58808;59.366;17.970;2022-12-29T07:03:21;3.70;99.90
71142;DHT22;58808;59.366;17.970;2022-12-29T07:05:47;3.80;99.90
71142;DHT22;58808;59.366;17.970;2022-12-29T07:08:13;3.80;99.90
71142;DHT22;58808;59.366;17.970;2022-12-29T07:10:39;3.80;99.90
71142;DHT22;58808;59.366;17.970;2022-12-29T07:13:05;3.80;99.90
71142;DHT22;58808;59.366;17.970;2022-12-29T07:15:33;3.80;99.90
71142;DHT22;58808;59.366;17.970;2022-12-29T07:17:59;3.80;99.90
71142;DHT22;58808;59.366;17.970;2022-12-29T07:20:25;3.80;99.90
71142;DHT22;58808;59.366;17.970;2022-12-29T07:22:50;3.80;99.90
71142;DHT22;58808;59.366;17.970;2022-12-29T07:25:16;3.80;99.90
71142;DHT22;58808;59.366;17.970;2022-12-29T07:27:42;3.80;99.90
71142;DHT22;58808;59.366;17.970;2022-12-29T07:30:08;3.80;99.90
71142;DHT22;58808;59.366;17.970;2022-12-29T07:32:34;3.80;99.90
71142;DHT22;58808;59.366;17.970;2022-12-29T07:35:00;3.80;99.90
71142;DHT22;58808;59.366;17.970;2022-12-29T07:37:26;3.80;99.90
71142;DHT22;58808;59.366;17.970;2022-12-29T07:39:52;3.80;99.90
71142;DHT22;58808;59.366;17.970;2022-12-29T07:42:17;3.80;99.90
71142;DHT22;58808;59.366;17.970;2022-12-29T07:44:43;3.90;99.90
71142;DHT22;58808;59.366;17.970;2022-12-29T07:47:09;3.90;99.90
71142;DHT22;58808;59.366;17.970;2022-12-29T07:49:34;3.90;99.90
71142;DHT22;58808;59.366;17.970;2022-12-29T07:52:00;3.90;99.90
71142;DHT22;58808;59.366;17.970;2022-12-29T07:54:26;3.90;99.90
71142;DHT22;58808;59.366;17.970;2022-12-29T07:56:51;3.90;99.90
71142;DHT22;58808;59.366;17.970;2022-12-29T07:59:17;3.90;99.90
71142;DHT22;58808;59.366;17.970;2022-12-29T08:01:43;3.90;99.90
71142;DHT22;58808;59.366;17.970;2022-12-29T08:04:09;3.90;99.90
71142;DHT22;58808;59.366;17.970;2022-12-29T08:06:34;3.90;99.90
71142;DHT22;58808;59.366;17.970;2022-12-29T08:09:00;3.80;99.90
71142;DHT22;58808;59.366;17.970;2022-12-29T08:11:27;3.90;99.90
71142;DHT22;58808;59.366;17.970;2022-12-29T08:13:53;3.90;99.90
71142;DHT22;58808;59.366;17.970;2022-12-29T08:16:18;3.90;99.90
71142;DHT22;58808;59.366;17.970;2022-12-29T08:18:44;3.90;99.90
71142;DHT22;58808;59.366;17.970;2022-12-29T08:21:10;3.90;99.90
71142;DHT22;58808;59.366;17.970;2022-12-29T08:23:35;3.80;99.90
71142;DHT22;58808;59.366;17.970;2022-12-29T08:26:03;3.90;99.90
71142;DHT22;58808;59.366;17.970;2022-12-29T08:28:30;3.90;99.90
71142;DHT22;58808;59.366;17.970;2022-12-29T08:31:02;3.90;99.90
71142;DHT22;58808;59.366;17.970;2022-12-29T08:33:29;3.90;99.90
71142;DHT22;58808;59.366;17.970;2022-12-29T08:36:05;3.90;99.90
71142;DHT22;58808;59.366;17.970;2022-12-29T08:38:31;3.90;99.90
71142;DHT22;58808;59.366;17.970;2022-12-29T08:40:58;4.00;99.90
71142;DHT22;58808;59.366;17.970;2022-12-29T08:43:24;3.90;99.90
71142;DHT22;58808;59.366;17.970;2022-12-29T08:45:50;4.00;99.90
71142;DHT22;58808;59.366;17.970;2022-12-29T08:48:15;4.00;99.90
71142;DHT22;58808;59.366;17.970;2022-12-29T08:50:48;4.00;99.90
71142;DHT22;58808;59.366;17.970;2022-12-29T08:53:14;4.00;99.90
71142;DHT22;58808;59.366;17.970;2022-12-29T08:55:40;4.00;99.90
71142;DHT22;58808;59.366;17.970;2022-12-29T08:58:06;3.90;99.90
71142;DHT22;58808;59.366;17.970;2022-12-29T09:00:31;4.00;99.90
71142;DHT22;58808;59.366;17.970;2022-12-29T09:02:57;4.00;99.90
71142;DHT22;58808;59.366;17.970;2022-12-29T09:05:23;4.00;99.90
71142;DHT22;58808;59.366;17.970;2022-12-29T09:07:49;4.00;99.90
71142;DHT22;58808;59.366;17.970;2022-12-29T09:10:15;4.00;99.90
71142;DHT22;58808;59.366;17.970;2022-12-29T09:12:40;4.00;99.90
71142;DHT22;58808;59.366;17.970;2022-12-29T09:15:07;4.00;99.90
71142;DHT22;58808;59.366;17.970;2022-12-29T09:17:32;4.10;99.90
71142;DHT22;58808;59.366;17.970;2022-12-29T09:20:16;4.10;99.90
71142;DHT22;58808;59.366;17.970;2022-12-29T09:22:43;4.10;99.90
71142;DHT22;58808;59.366;17.970;2022-12-29T09:25:10;4.10;99.90
71142;DHT22;58808;59.366;17.970;2022-12-29T09:27:36;4.10;99.90
71142;DHT22;58808;59.366;17.970;2022-12-29T09:30:04;4.10;99.90
71142;DHT22;58808;59.366;17.970;2022-12-29T09:32:31;4.20;99.90
71142;DHT22;58808;59.366;17.970;2022-12-29T09:34:56;4.20;99.90
71142;DHT22;58808;59.366;17.970;2022-12-29T09:37:22;4.20;99.90
71142;DHT22;58808;59.366;17.970;2022-12-29T09:39:48;4.20;99.90
71142;DHT22;58808;59.366;17.970;2022-12-29T09:42:18;4.20;99.90
71142;DHT22;58808;59.366;17.970;2022-12-29T09:44:55;4.30;99.90
71142;DHT22;58808;59.366;17.970;2022-12-29T09:47:22;4.30;99.90
71142;DHT22;58808;59.366;17.970;2022-12-29T09:49:53;4.30;99.90
71142;DHT22;58808;59.366;17.970;2022-12-29T09:52:36;4.30;99.90
71142;DHT22;58808;59.366;17.970;2022-12-29T09:55:09;4.30;99.90
71142;DHT22;58808;59.366;17.970;2022-12-29T09:57:54;4.30;99.90
71142;DHT22;58808;59.366;17.970;2022-12-29T10:00:38;4.30;99.90
71142;DHT22;58808;59.366;17.970;2022-12-29T10:06:08;4.40;99.90
71142;DHT22;58808;59.366;17.970;2022-12-29T10:11:36;4.40;99.90
71142;DHT22;58808;59.366;17.970;2022-12-29T10:25:22;4.50;99.90
71142;DHT22;58808;59.366;17.970;2022-12-29T10:27:50;4.50;99.90
71142;DHT22;58808;59.366;17.970;2022-12-29T10:30:18;4.50;99.90
71142;DHT22;58808;59.366;17.970;2022-12-29T10:32:58;4.60;99.90
71142;DHT22;58808;59.366;17.970;2022-12-29T10:35:38;4.60;99.90
71142;DHT22;58808;59.366;17.970;2022-12-29T10:38:28;4.60;99.90
71142;DHT22;58808;59.366;17.970;2022-12-29T10:41:11;4.60;99.90
71142;DHT22;58808;59.366;17.970;2022-12-29T10:43:45;4.60;99.90
71142;DHT22;58808;59.366;17.970;2022-12-29T10:46:17;4.60;99.90
71142;DHT22;58808;59.366;17.970;2022-12-29T10:48:43;4.60;99.90
71142;DHT22;58808;59.366;17.970;2022-12-29T10:51:23;4.70;99.90
71142;DHT22;58808;59.366;17.970;2022-12-29T10:54:17;4.70;99.90
71142;DHT22;58808;59.366;17.970;2022-12-29T10:57:00;4.70;99.90
71142;DHT22;58808;59.366;17.970;2022-12-29T10:59:30;4.70;99.90
71142;DHT22;58808;59.366;17.970;2022-12-29T11:07:06;4.70;99.90
71142;DHT22;58808;59.366;17.970;2022-12-29T11:09:35;4.70;99.90
71142;DHT22;58808;59.366;17.970;2022-12-29T11:14:43;4.80;99.90
71142;DHT22;58808;59.366;17.970;2022-12-29T11:17:15;4.80;99.90
71142;DHT22;58808;59.366;17.970;2022-12-29T11:19:42;4.80;99.90
71142;DHT22;58808;59.366;17.970;2022-12-29T11:22:22;4.80;99.90
71142;DHT22;58808;59.366;17.970;2022-12-29T11:24:49;4.80;99.90
71142;DHT22;58808;59.366;17.970;2022-12-29T11:27:18;4.80;99.90
71142;DHT22;58808;59.366;17.970;2022-12-29T11:29:46;4.80;99.90
71142;DHT22;58808;59.366;17.970;2022-12-29T11:32:22;4.80;99.90
71142;DHT22;58808;59.366;17.970;2022-12-29T11:34:48;4.90;99.90
71142;DHT22;58808;59.366;17.970;2022-12-29T11:37:31;4.90;99.90
71142;DHT22;58808;59.366;17.970;2022-12-29T11:42:58;4.90;99.90
71142;DHT22;58808;59.366;17.970;2022-12-29T11:45:30;4.90;99.90
71142;DHT22;58808;59.366;17.970;2022-12-29T11:50:29;5.00;99.90
71142;DHT22;58808;59.366;17.970;2022-12-29T11:53:03;5.00;99.90
71142;DHT22;58808;59.366;17.970;2022-12-29T11:55:31;5.00;99.90
71142;DHT22;58808;59.366;17.970;2022-12-29T11:57:59;5.00;99.90
71142;DHT22;58808;59.366;17.970;2022-12-29T12:00:28;5.00;99.90
71142;DHT22;58808;59.366;17.970;2022-12-29T12:03:07;5.00;99.90
71142;DHT22;58808;59.366;17.970;2022-12-29T12:08:37;5.00;99.90
71142;DHT22;58808;59.366;17.970;2022-12-29T12:11:14;5.00;99.90
71142;DHT22;58808;59.366;17.970;2022-12-29T12:13:47;5.00;99.90
71142;DHT22;58808;59.366;17.970;2022-12-29T12:16:24;5.00;99.90
71142;DHT22;58808;59.366;17.970;2022-12-29T12:19:03;5.10;99.90
71142;DHT22;58808;59.366;17.970;2022-12-29T12:21:43;5.10;99.90
71142;DHT22;58808;59.366;17.970;2022-12-29T12:27:24;5.10;99.90
71142;DHT22;58808;59.366;17.970;2022-12-29T12:29:49;5.10;99.90
71142;DHT22;58808;59.366;17.970;2022-12-29T12:35:12;5.10;99.90
71142;DHT22;58808;59.366;17.970;2022-12-29T12:53:39;5.20;99.90
71142;DHT22;58808;59.366;17.970;2022-12-29T13:01:48;5.10;99.90
71142;DHT22;58808;59.366;17.970;2022-12-29T13:10:00;5.20;99.90
71142;DHT22;58808;59.366;17.970;2022-12-29T13:21:02;5.20;99.90
71142;DHT22;58808;59.366;17.970;2022-12-29T13:26:26;5.20;99.90
71142;DHT22;58808;59.366;17.970;2022-12-29T13:36:58;5.20;99.90
71142;DHT22;58808;59.366;17.970;2022-12-29T13:39:34;5.20;99.90
71142;DHT22;58808;59.366;17.970;2022-12-29T13:42:04;5.20;99.90
71142;DHT22;58808;59.366;17.970;2022-12-29T13:47:29;5.20;99.90
71142;DHT22;58808;59.366;17.970;2022-12-29T13:49:58;5.20;99.90
71142;DHT22;58808;59.366;17.970;2022-12-29T13:55:27;5.20;99.90
71142;DHT22;58808;59.366;17.970;2022-12-29T14:03:28;5.20;99.90
71142;DHT22;58808;59.366;17.970;2022-12-29T14:08:34;5.20;99.90
71142;DHT22;58808;59.366;17.970;2022-12-29T14:11:14;5.20;99.90
71142;DHT22;58808;59.366;17.970;2022-12-29T14:13:42;5.20;99.90
71142;DHT22;58808;59.366;17.970;2022-12-29T14:16:21;5.20;99.90
71142;DHT22;58808;59.366;17.970;2022-12-29T14:18:50;5.20;99.90
71142;DHT22;58808;59.366;17.970;2022-12-29T14:23:44;5.20;99.90
71142;DHT22;58808;59.366;17.970;2022-12-29T14:28:54;5.30;99.90
71142;DHT22;58808;59.366;17.970;2022-12-29T14:36:37;5.30;99.90
71142;DHT22;58808;59.366;17.970;2022-12-29T14:39:41;5.30;99.90
71142;DHT22;58808;59.366;17.970;2022-12-29T14:45:05;5.40;99.90
71142;DHT22;58808;59.366;17.970;2022-12-29T14:47:38;5.30;99.90
71142;DHT22;58808;59.366;17.970;2022-12-29T14:50:13;5.40;99.90
71142;DHT22;58808;59.366;17.970;2022-12-29T14:55:53;5.40;99.90
71142;DHT22;58808;59.366;17.970;2022-12-29T14:58:31;5.40;99.90
71142;DHT22;58808;59.366;17.970;2022-12-29T15:00:59;5.50;99.90
71142;DHT22;58808;59.366;17.970;2022-12-29T15:03:46;5.50;99.90
71142;DHT22;58808;59.366;17.970;2022-12-29T15:06:15;5.50;99.90
71142;DHT22;58808;59.366;17.970;2022-12-29T15:08:51;5.50;99.90
71142;DHT22;58808;59.366;17.970;2022-12-29T15:11:24;5.50;99.90
71142;DHT22;58808;59.366;17.970;2022-12-29T15:13:50;5.50;99.90
71142;DHT22;58808;59.366;17.970;2022-12-29T15:16:34;5.50;99.90
71142;DHT22;58808;59.366;17.970;2022-12-29T15:19:03;5.50;99.90
71142;DHT22;58808;59.366;17.970;2022-12-29T15:21:33;5.50;99.90
71142;DHT22;58808;59.366;17.970;2022-12-29T15:24:00;5.50;99.90
71142;DHT22;58808;59.366;17.970;2022-12-29T15:26:40;5.50;99.90
71142;DHT22;58808;59.366;17.970;2022-12-29T15:29:34;5.50;99.90
71142;DHT22;58808;59.366;17.970;2022-12-29T15:32:17;5.50;99.90
71142;DHT22;58808;59.366;17.970;2022-12-29T15:34:45;5.50;99.90
71142;DHT22;58808;59.366;17.970;2022-12-29T15:37:22;5.50;99.90
71142;DHT22;58808;59.366;17.970;2022-12-29T15:39:49;5.50;99.90
71142;DHT22;58808;59.366;17.970;2022-12-29T15:44:49;5.60;99.90
71142;DHT22;58808;59.366;17.970;2022-12-29T15:47:20;5.50;99.90
71142;DHT22;58808;59.366;17.970;2022-12-29T15:49:52;5.50;99.90
71142;DHT22;58808;59.366;17.970;2022-12-29T15:52:22;5.50;99.90
71142;DHT22;58808;59.366;17.970;2022-12-29T15:54:51;5.50;99.90
71142;DHT22;58808;59.366;17.970;2022-12-29T15:57:24;5.50;99.90
71142;DHT22;58808;59.366;17.970;2022-12-29T15:59:50;5.60;99.90
71142;DHT22;58808;59.366;17.970;2022-12-29T16:02:16;5.50;99.90
71142;DHT22;58808;59.366;17.970;2022-12-29T16:04:42;5.50;99.90
71142;DHT22;58808;59.366;17.970;2022-12-29T16:07:27;5.60;99.90
71142;DHT22;58808;59.366;17.970;2022-12-29T16:10:00;5.60;99.90
71142;DHT22;58808;59.366;17.970;2022-12-29T16:12:35;5.60;99.90
71142;DHT22;58808;59.366;17.970;2022-12-29T16:15:06;5.60;99.90
71142;DHT22;58808;59.366;17.970;2022-12-29T16:17:36;5.60;99.90
71142;DHT22;58808;59.366;17.970;2022-12-29T16:20:19;5.60;99.90
71142;DHT22;58808;59.366;17.970;2022-12-29T16:22:57;5.60;99.90
71142;DHT22;58808;59.366;17.970;2022-12-29T16:25:29;5.70;99.90
71142;DHT22;58808;59.366;17.970;2022-12-29T16:27:57;5.70;99.90
71142;DHT22;58808;59.366;17.970;2022-12-29T16:30:27;5.70;99.90
71142;DHT22;58808;59.366;17.970;2022-12-29T16:32:55;5.70;99.90
71142;DHT22;58808;59.366;17.970;2022-12-29T16:35:26;5.70;99.90
71142;DHT22;58808;59.366;17.970;2022-12-29T16:40:51;5.70;99.90
71142;DHT22;58808;59.366;17.970;2022-12-29T16:43:31;5.80;99.90
71142;DHT22;58808;59.366;17.970;2022-12-29T16:48:46;5.80;99.90
71142;DHT22;58808;59.366;17.970;2022-12-29T16:51:16;5.80;99.90
71142;DHT22;58808;59.366;17.970;2022-12-29T16:53:51;5.80;99.90
71142;DHT22;58808;59.366;17.970;2022-12-29T16:56:20;5.80;99.90
71142;DHT22;58808;59.366;17.970;2022-12-29T17:01:25;5.70;99.90
71142;DHT22;58808;59.366;17.970;2022-12-29T17:03:58;5.80;99.90
71142;DHT22;58808;59.366;17.970;2022-12-29T17:06:25;5.80;99.90
71142;DHT22;58808;59.366;17.970;2022-12-29T17:08:52;5.80;99.90
71142;DHT22;58808;59.366;17.970;2022-12-29T17:11:30;5.70;99.90
71142;DHT22;58808;59.366;17.970;2022-12-29T17:14:49;5.80;99.90
71142;DHT22;58808;59.366;17.970;2022-12-29T17:17:38;5.70;99.90
71142;DHT22;58808;59.366;17.970;2022-12-29T17:22:32;5.70;99.90
71142;DHT22;58808;59.366;17.970;2022-12-29T17:25:00;5.70;99.90
71142;DHT22;58808;59.366;17.970;2022-12-29T17:27:32;5.80;99.90
71142;DHT22;58808;59.366;17.970;2022-12-29T17:30:02;5.70;99.90
71142;DHT22;58808;59.366;17.970;2022-12-29T17:32:29;5.80;99.90
71142;DHT22;58808;59.366;17.970;2022-12-29T17:34:55;5.70;99.90
71142;DHT22;58808;59.366;17.970;2022-12-29T17:39:50;5.70;99.90
71142;DHT22;58808;59.366;17.970;2022-12-29T17:42:18;5.70;99.90
71142;DHT22;58808;59.366;17.970;2022-12-29T17:44:44;5.70;99.90
71142;DHT22;58808;59.366;17.970;2022-12-29T17:47:11;5.70;99.90
71142;DHT22;58808;59.366;17.970;2022-12-29T17:49:37;5.70;99.90
71142;DHT22;58808;59.366;17.970;2022-12-29T17:52:03;5.70;99.90
71142;DHT22;58808;59.366;17.970;2022-12-29T17:54:29;5.70;99.90
71142;DHT22;58808;59.366;17.970;2022-12-29T17:56:56;5.70;99.90
71142;DHT22;58808;59.366;17.970;2022-12-29T17:59:21;5.70;99.90
71142;DHT22;58808;59.366;17.970;2022-12-29T18:01:48;5.70;99.90
71142;DHT22;58808;59.366;17.970;2022-12-29T18:04:16;5.70;99.90
71142;DHT22;58808;59.366;17.970;2022-12-29T18:06:43;5.70;99.90
71142;DHT22;58808;59.366;17.970;2022-12-29T18:09:11;5.70;99.90
71142;DHT22;58808;59.366;17.970;2022-12-29T18:11:41;5.70;99.90
71142;DHT22;58808;59.366;17.970;2022-12-29T18:14:12;5.70;99.90
71142;DHT22;58808;59.366;17.970;2022-12-29T18:16:38;5.70;99.90
71142;DHT22;58808;59.366;17.970;2022-12-29T18:19:04;5.70;99.90
71142;DHT22;58808;59.366;17.970;2022-12-29T18:21:30;5.70;99.90
71142;DHT22;58808;59.366;17.970;2022-12-29T18:23:55;5.70;99.90
71142;DHT22;58808;59.366;17.970;2022-12-29T18:26:23;5.70;99.90
71142;DHT22;58808;59.366;17.970;2022-12-29T18:28:50;5.70;99.90
71142;DHT22;58808;59.366;17.970;2022-12-29T18:31:19;5.70;99.90
71142;DHT22;58808;59.366;17.970;2022-12-29T18:33:46;5.70;99.90
71142;DHT22;58808;59.366;17.970;2022-12-29T18:36:13;5.70;99.90